Time,TemperatureF,DewpointF,PressureIn,WindDirection,WindDirectionDegrees,WindSpeedMPH,WindSpeedGustMPH,Humidity,HourlyPrecipIn,Conditions,Clouds,dailyrainin,SoftwareType,DateUTC
2013-03-15 00:02:00,41.0,41.0,-100.00,North,0,2.0,4.0,98,-99.99,,,-99.99,,2013-03-15 07:02:00,
2013-03-15 00:12:00,40.0,40.0,-100.00,North,0,3.0,5.0,99,-99.99,,,-99.99,,2013-03-15 07:12:00,
2013-03-15 00:22:00,40.0,40.0,-100.00,NNW,335,1.0,4.0,99,-99.99,,,-99.99,,2013-03-15 07:22:00,
2013-03-15 00:32:00,41.0,40.0,-100.00,NNW,345,2.0,4.0,98,-99.99,,,-99.99,,2013-03-15 07:32:00,
2013-03-15 00:52:00,41.0,40.0,-100.00,NNW,335,1.0,6.0,98,-99.99,,,-99.99,,2013-03-15 07:52:00,
2013-03-15 01:02:00,41.0,40.0,-100.00,NNW,335,1.0,6.0,98,-99.99,,,-99.99,,2013-03-15 08:02:00,
2013-03-15 01:12:00,43.0,39.0,-100.00,NNW,330,6.0,11.0,84,-99.99,,,-99.99,,2013-03-15 08:12:00,
2013-03-15 01:22:00,44.0,38.0,-100.00,NW,320,5.0,9.0,79,-99.99,,,-99.99,,2013-03-15 08:22:00,
2013-03-15 01:32:00,45.0,37.0,-100.00,NNW,330,9.0,17.0,73,-99.99,,,-99.99,,2013-03-15 08:32:00,
2013-03-15 01:42:00,45.0,37.0,-100.00,NNW,330,9.0,17.0,73,-99.99,,,-99.99,,2013-03-15 08:42:00,
2013-03-15 01:52:00,46.0,36.0,-100.00,NW,320,8.0,21.0,66,-99.99,,,-99.99,,2013-03-15 08:52:00,
2013-03-15 02:01:00,46.0,36.0,-100.00,NW,320,8.0,21.0,66,-99.99,,,-99.99,,2013-03-15 09:01:00,
2013-03-15 02:12:00,45.0,36.0,-100.00,NW,315,9.0,18.0,69,-99.99,,,-99.99,,2013-03-15 09:12:00,
2013-03-15 02:21:00,45.0,35.0,-100.00,NW,315,9.0,16.0,69,-99.99,,,-99.99,,2013-03-15 09:21:00,
2013-03-15 02:33:00,44.0,35.0,-100.00,NW,305,7.0,15.0,70,-99.99,,,-99.99,,2013-03-15 09:33:00,
2013-03-15 02:42:00,44.0,35.0,-100.00,NW,305,7.0,15.0,70,-99.99,,,-99.99,,2013-03-15 09:42:00,
2013-03-15 02:52:00,45.0,35.0,-100.00,NNW,330,4.0,14.0,66,-99.99,,,-99.99,,2013-03-15 09:52:00,
2013-03-15 03:02:00,45.0,35.0,-100.00,NNW,330,4.0,14.0,66,-99.99,,,-99.99,,2013-03-15 10:02:00,
2013-03-15 03:12:00,45.0,36.0,-100.00,WNW,290,7.0,15.0,71,-99.99,,,-99.99,,2013-03-15 10:12:00,
2013-03-15 03:23:00,45.0,35.0,-100.00,WNW,285,7.0,17.0,70,-99.99,,,-99.99,,2013-03-15 10:23:00,
2013-03-15 03:32:00,45.0,35.0,-100.00,NW,325,9.0,18.0,67,-99.99,,,-99.99,,2013-03-15 10:32:00,
2013-03-15 03:42:00,45.0,35.0,-100.00,NW,325,9.0,18.0,67,-99.99,,,-99.99,,2013-03-15 10:42:00,
2013-03-15 03:52:00,46.0,35.0,-100.00,NW,320,7.0,18.0,65,-99.99,,,-99.99,,2013-03-15 10:52:00,
2013-03-15 04:02:00,46.0,35.0,-100.00,NW,320,7.0,18.0,65,-99.99,,,-99.99,,2013-03-15 11:02:00,
2013-03-15 04:12:00,45.0,35.0,-100.00,WNW,290,7.0,17.0,68,-99.99,,,-99.99,,2013-03-15 11:12:00,
2013-03-15 04:22:00,45.0,34.0,-100.00,WNW,295,7.0,15.0,67,-99.99,,,-99.99,,2013-03-15 11:22:00,
2013-03-15 04:32:00,45.0,34.0,-100.00,WNW,295,7.0,15.0,67,-99.99,,,-99.99,,2013-03-15 11:32:00,
2013-03-15 04:42:00,45.0,34.0,-100.00,WNW,295,7.0,15.0,67,-99.99,,,-99.99,,2013-03-15 11:42:00,
2013-03-15 04:52:00,46.0,33.0,-100.00,NW,325,9.0,20.0,61,-99.99,,,-99.99,,2013-03-15 11:52:00,
2013-03-15 05:02:00,46.0,33.0,-100.00,NW,325,9.0,20.0,61,-99.99,,,-99.99,,2013-03-15 12:02:00,
2013-03-15 05:12:00,46.0,33.0,-100.00,NNW,330,10.0,19.0,60,-99.99,,,-99.99,,2013-03-15 12:12:00,
2013-03-15 05:22:00,47.0,32.0,-100.00,NW,325,12.0,24.0,54,-99.99,,,-99.99,,2013-03-15 12:22:00,
2013-03-15 05:32:00,47.0,31.0,-100.00,NNW,340,14.0,23.0,52,-99.99,,,-99.99,,2013-03-15 12:32:00,
2013-03-15 05:42:00,47.0,31.0,-100.00,NNW,340,14.0,23.0,52,-99.99,,,-99.99,,2013-03-15 12:42:00,
2013-03-15 05:52:00,47.0,31.0,-100.00,NW,325,10.0,25.0,54,-99.99,,,-99.99,,2013-03-15 12:52:00,
2013-03-15 06:02:00,47.0,31.0,-100.00,NW,325,10.0,25.0,54,-99.99,,,-99.99,,2013-03-15 13:02:00,
2013-03-15 06:12:00,46.0,32.0,-100.00,NNW,340,9.0,22.0,58,-99.99,,,-99.99,,2013-03-15 13:12:00,
2013-03-15 06:22:00,46.0,32.0,-100.00,NNW,330,11.0,22.0,59,-99.99,,,-99.99,,2013-03-15 13:22:00,
2013-03-15 06:32:00,45.0,34.0,-100.00,NW,305,7.0,20.0,64,-99.99,,,-99.99,,2013-03-15 13:32:00,
2013-03-15 06:42:00,45.0,34.0,-100.00,NW,305,7.0,20.0,64,-99.99,,,-99.99,,2013-03-15 13:42:00,
2013-03-15 06:52:00,44.0,34.0,-100.00,WNW,300,6.0,17.0,67,-99.99,,,-99.99,,2013-03-15 13:52:00,
2013-03-15 07:02:00,44.0,34.0,-100.00,WNW,300,6.0,17.0,67,-99.99,,,-99.99,,2013-03-15 14:02:00,
2013-03-15 07:12:00,43.0,34.0,-100.00,NW,305,6.0,14.0,70,-99.99,,,-99.99,,2013-03-15 14:12:00,
2013-03-15 07:22:00,42.0,35.0,-100.00,NW,315,6.0,12.0,75,-99.99,,,-99.99,,2013-03-15 14:22:00,
2013-03-15 07:32:00,42.0,35.0,-100.00,WNW,300,6.0,14.0,76,-99.99,,,-99.99,,2013-03-15 14:32:00,
2013-03-15 07:42:00,42.0,35.0,-100.00,WNW,300,6.0,14.0,76,-99.99,,,-99.99,,2013-03-15 14:42:00,
2013-03-15 07:52:00,42.0,35.0,-100.00,WNW,300,6.0,15.0,76,-99.99,,,-99.99,,2013-03-15 14:52:00,
2013-03-15 08:02:00,42.0,35.0,-100.00,WNW,300,6.0,15.0,76,-99.99,,,-99.99,,2013-03-15 15:02:00,
2013-03-15 08:12:00,42.0,35.0,-100.00,WNW,290,7.0,14.0,76,-99.99,,,-99.99,,2013-03-15 15:12:00,
2013-03-15 08:22:00,42.0,35.0,-100.00,WNW,300,6.0,14.0,76,-99.99,,,-99.99,,2013-03-15 15:22:00,
2013-03-15 08:33:00,42.0,34.0,-100.00,WNW,285,7.0,12.0,73,-99.99,,,-99.99,,2013-03-15 15:33:00,
2013-03-15 08:42:00,42.0,34.0,-100.00,WNW,285,7.0,12.0,73,-99.99,,,-99.99,,2013-03-15 15:42:00,
2013-03-15 08:52:00,44.0,34.0,-100.00,NNW,335,10.0,19.0,67,-99.99,,,-99.99,,2013-03-15 15:52:00,
2013-03-15 09:02:00,44.0,34.0,-100.00,NNW,335,10.0,19.0,67,-99.99,,,-99.99,,2013-03-15 16:02:00,
2013-03-15 09:12:00,44.0,33.0,-100.00,NNW,330,11.0,21.0,64,-99.99,,,-99.99,,2013-03-15 16:12:00,
2013-03-15 09:22:00,46.0,33.0,-100.00,NNW,330,7.0,16.0,62,-99.99,,,-99.99,,2013-03-15 16:22:00,
2013-03-15 09:32:00,46.0,34.0,-100.00,WNW,300,5.0,14.0,62,-99.99,,,-99.99,,2013-03-15 16:32:00,
2013-03-15 09:42:00,46.0,34.0,-100.00,WNW,300,5.0,14.0,62,-99.99,,,-99.99,,2013-03-15 16:42:00,
2013-03-15 09:52:00,46.0,34.0,-100.00,WNW,290,4.0,13.0,63,-99.99,,,-99.99,,2013-03-15 16:52:00,
2013-03-15 10:01:00,46.0,34.0,-100.00,WNW,290,4.0,13.0,63,-99.99,,,-99.99,,2013-03-15 17:01:00,
2013-03-15 10:12:00,47.0,35.0,-100.00,WNW,290,6.0,17.0,61,-99.99,,,-99.99,,2013-03-15 17:12:00,
2013-03-15 10:22:00,48.0,35.0,-100.00,NW,305,7.0,14.0,61,-99.99,,,-99.99,,2013-03-15 17:22:00,
2013-03-15 10:32:00,48.0,35.0,-100.00,West,265,7.0,15.0,59,-99.99,,,-99.99,,2013-03-15 17:32:00,
2013-03-15 10:42:00,48.0,35.0,-100.00,West,265,7.0,15.0,59,-99.99,,,-99.99,,2013-03-15 17:42:00,
2013-03-15 10:52:00,50.0,35.0,-100.00,WNW,285,6.0,18.0,56,-99.99,,,-99.99,,2013-03-15 17:52:00,
2013-03-15 11:02:00,50.0,35.0,-100.00,WNW,285,6.0,18.0,56,-99.99,,,-99.99,,2013-03-15 18:02:00,
2013-03-15 11:12:00,50.0,34.0,-100.00,NNW,330,10.0,18.0,54,-99.99,,,-99.99,,2013-03-15 18:12:00,
2013-03-15 11:22:00,51.0,35.0,-100.00,NNW,335,9.0,17.0,53,-99.99,,,-99.99,,2013-03-15 18:22:00,
2013-03-15 11:32:00,51.0,35.0,-100.00,NNW,335,9.0,17.0,53,-99.99,,,-99.99,,2013-03-15 18:32:00,
2013-03-15 11:42:00,51.0,35.0,-100.00,NNW,335,9.0,17.0,53,-99.99,,,-99.99,,2013-03-15 18:42:00,
2013-03-15 11:52:00,52.0,35.0,-100.00,WNW,295,6.0,16.0,51,-99.99,,,-99.99,,2013-03-15 18:52:00,
2013-03-15 12:02:00,52.0,35.0,-100.00,WNW,295,6.0,16.0,51,-99.99,,,-99.99,,2013-03-15 19:02:00,
2013-03-15 12:12:00,53.0,35.0,-100.00,NW,310,9.0,16.0,51,-99.99,,,-99.99,,2013-03-15 19:12:00,
2013-03-15 12:22:00,54.0,35.0,-100.00,NNW,330,7.0,17.0,49,-99.99,,,-99.99,,2013-03-15 19:22:00,
2013-03-15 12:32:00,55.0,36.0,-100.00,NNW,345,9.0,16.0,47,-99.99,,,-99.99,,2013-03-15 19:32:00,
2013-03-15 12:42:00,55.0,36.0,-100.00,NNW,345,9.0,16.0,47,-99.99,,,-99.99,,2013-03-15 19:42:00,
2013-03-15 12:52:00,55.0,34.0,-100.00,NW,325,9.0,17.0,44,-99.99,,,-99.99,,2013-03-15 19:52:00,
2013-03-15 13:02:00,55.0,34.0,-100.00,NW,325,9.0,17.0,44,-99.99,,,-99.99,,2013-03-15 20:02:00,
2013-03-15 13:12:00,56.0,34.0,-100.00,NNW,335,10.0,17.0,43,-99.99,,,-99.99,,2013-03-15 20:12:00,
2013-03-15 13:22:00,57.0,34.0,-100.00,NNW,335,7.0,18.0,42,-99.99,,,-99.99,,2013-03-15 20:22:00,
2013-03-15 13:31:00,57.0,35.0,-100.00,NNW,335,12.0,20.0,43,-99.99,,,-99.99,,2013-03-15 20:31:00,
2013-03-15 13:42:00,57.0,35.0,-100.00,NNW,335,12.0,20.0,43,-99.99,,,-99.99,,2013-03-15 20:42:00,
2013-03-15 13:51:00,58.0,36.0,-100.00,NNW,330,7.0,17.0,43,-99.99,,,-99.99,,2013-03-15 20:51:00,
2013-03-15 14:02:00,58.0,36.0,-100.00,NNW,330,7.0,17.0,43,-99.99,,,-99.99,,2013-03-15 21:02:00,
2013-03-15 14:12:00,58.0,36.0,-100.00,NW,310,7.0,16.0,43,-99.99,,,-99.99,,2013-03-15 21:12:00,
2013-03-15 14:22:00,59.0,36.0,-100.00,North,0,9.0,17.0,42,-99.99,,,-99.99,,2013-03-15 21:22:00,
2013-03-15 14:32:00,59.0,36.0,-100.00,WNW,295,9.0,17.0,42,-99.99,,,-99.99,,2013-03-15 21:32:00,
2013-03-15 14:43:00,59.0,36.0,-100.00,WNW,295,9.0,17.0,42,-99.99,,,-99.99,,2013-03-15 21:43:00,
2013-03-15 14:52:00,60.0,36.0,-100.00,WNW,295,7.0,19.0,41,-99.99,,,-99.99,,2013-03-15 21:52:00,
2013-03-15 15:03:00,60.0,36.0,-100.00,WNW,295,7.0,19.0,41,-99.99,,,-99.99,,2013-03-15 22:03:00,
2013-03-15 15:13:00,59.0,35.0,-100.00,NW,305,9.0,18.0,41,-99.99,,,-99.99,,2013-03-15 22:13:00,
2013-03-15 15:22:00,59.0,36.0,-100.00,NW,310,8.0,19.0,42,-99.99,,,-99.99,,2013-03-15 22:22:00,
2013-03-15 15:32:00,59.0,36.0,-100.00,NNW,340,7.0,19.0,41,-99.99,,,-99.99,,2013-03-15 22:32:00,
2013-03-15 15:42:00,59.0,36.0,-100.00,NNW,340,7.0,19.0,41,-99.99,,,-99.99,,2013-03-15 22:42:00,
2013-03-15 15:52:00,60.0,35.0,-100.00,NW,320,10.0,21.0,39,-99.99,,,-99.99,,2013-03-15 22:52:00,
2013-03-15 16:02:00,60.0,35.0,-100.00,NW,320,10.0,21.0,39,-99.99,,,-99.99,,2013-03-15 23:02:00,
2013-03-15 16:12:00,60.0,35.0,-100.00,NNW,340,7.0,16.0,39,-99.99,,,-99.99,,2013-03-15 23:12:00,
2013-03-15 16:22:00,60.0,35.0,-100.00,NW,305,6.0,20.0,38,-99.99,,,-99.99,,2013-03-15 23:22:00,
2013-03-15 16:32:00,61.0,35.0,-100.00,WNW,300,3.0,16.0,38,-99.99,,,-99.99,,2013-03-15 23:32:00,
2013-03-15 16:42:00,61.0,35.0,-100.00,WNW,300,3.0,16.0,38,-99.99,,,-99.99,,2013-03-15 23:42:00,
2013-03-15 16:52:00,61.0,34.0,-100.00,North,350,9.0,16.0,36,-99.99,,,-99.99,,2013-03-15 23:52:00,
2013-03-15 17:02:00,61.0,34.0,-100.00,North,350,9.0,16.0,36,-99.99,,,-99.99,,2013-03-16 00:02:00,
2013-03-15 17:12:00,62.0,33.0,-100.00,North,350,6.0,20.0,34,-99.99,,,-99.99,,2013-03-16 00:12:00,
2013-03-15 17:22:00,61.0,32.0,-100.00,NNW,340,7.0,16.0,33,-99.99,,,-99.99,,2013-03-16 00:22:00,
2013-03-15 17:32:00,62.0,32.0,-100.00,NNW,330,6.0,16.0,33,-99.99,,,-99.99,,2013-03-16 00:32:00,
2013-03-15 17:42:00,62.0,32.0,-100.00,NNW,330,6.0,16.0,33,-99.99,,,-99.99,,2013-03-16 00:42:00,
2013-03-15 17:52:00,60.0,32.0,-100.00,NW,315,6.0,15.0,34,-99.99,,,-99.99,,2013-03-16 00:52:00,
2013-03-15 18:02:00,60.0,32.0,-100.00,NW,315,6.0,15.0,34,-99.99,,,-99.99,,2013-03-16 01:02:00,
2013-03-15 18:12:00,60.0,32.0,-100.00,NNW,340,6.0,14.0,34,-99.99,,,-99.99,,2013-03-16 01:12:00,
2013-03-15 18:21:00,60.0,32.0,-100.00,NW,325,6.0,13.0,35,-99.99,,,-99.99,,2013-03-16 01:21:00,
2013-03-15 18:32:00,58.0,32.0,-100.00,WNW,290,3.0,12.0,37,-99.99,,,-99.99,,2013-03-16 01:32:00,
2013-03-15 18:42:00,58.0,32.0,-100.00,WNW,290,3.0,12.0,37,-99.99,,,-99.99,,2013-03-16 01:42:00,
2013-03-15 18:52:00,58.0,31.0,-100.00,NW,320,4.0,14.0,37,-99.99,,,-99.99,,2013-03-16 01:52:00,
2013-03-15 19:02:00,58.0,31.0,-100.00,NW,320,4.0,14.0,37,-99.99,,,-99.99,,2013-03-16 02:02:00,
2013-03-15 19:12:00,57.0,32.0,-100.00,NNW,330,4.0,10.0,38,-99.99,,,-99.99,,2013-03-16 02:12:00,
2013-03-15 19:22:00,56.0,32.0,-100.00,NNW,340,7.0,10.0,39,-99.99,,,-99.99,,2013-03-16 02:22:00,
2013-03-15 19:32:00,56.0,32.0,-100.00,West,275,2.0,9.0,41,-99.99,,,-99.99,,2013-03-16 02:32:00,
2013-03-15 19:42:00,56.0,32.0,-100.00,West,275,2.0,9.0,41,-99.99,,,-99.99,,2013-03-16 02:42:00,
2013-03-15 19:52:00,53.0,33.0,-100.00,West,270,1.0,4.0,46,-99.99,,,-99.99,,2013-03-16 02:52:00,
2013-03-15 20:02:00,53.0,33.0,-100.00,West,270,1.0,4.0,46,-99.99,,,-99.99,,2013-03-16 03:02:00,
2013-03-15 20:12:00,53.0,34.0,-100.00,NW,315,6.0,11.0,47,-99.99,,,-99.99,,2013-03-16 03:12:00,
2013-03-15 20:21:00,53.0,34.0,-100.00,NW,315,6.0,11.0,50,-99.99,,,-99.99,,2013-03-16 03:21:00,
2013-03-15 20:32:00,52.0,35.0,-100.00,NNW,340,5.0,9.0,52,-99.99,,,-99.99,,2013-03-16 03:32:00,
2013-03-15 20:43:00,52.0,35.0,-100.00,NNW,340,5.0,9.0,52,-99.99,,,-99.99,,2013-03-16 03:43:00,
2013-03-15 20:52:00,51.0,35.0,-100.00,North,5,2.0,6.0,56,-99.99,,,-99.99,,2013-03-16 03:52:00,
2013-03-15 21:02:00,51.0,35.0,-100.00,North,5,2.0,6.0,56,-99.99,,,-99.99,,2013-03-16 04:02:00,
2013-03-15 21:12:00,50.0,36.0,-100.00,NW,325,1.0,6.0,59,-99.99,,,-99.99,,2013-03-16 04:12:00,
2013-03-15 21:22:00,49.0,37.0,-100.00,NNW,330,2.0,6.0,61,-99.99,,,-99.99,,2013-03-16 04:22:00,
2013-03-15 21:32:00,49.0,37.0,-100.00,NW,305,2.0,6.0,63,-99.99,,,-99.99,,2013-03-16 04:32:00,
2013-03-15 21:42:00,49.0,37.0,-100.00,NW,305,2.0,6.0,63,-99.99,,,-99.99,,2013-03-16 04:42:00,
2013-03-15 21:52:00,48.0,37.0,-100.00,NW,305,4.0,6.0,65,-99.99,,,-99.99,,2013-03-16 04:52:00,
2013-03-15 22:02:00,48.0,37.0,-100.00,NW,305,4.0,6.0,65,-99.99,,,-99.99,,2013-03-16 05:02:00,
2013-03-15 22:12:00,47.0,37.0,-100.00,NNW,335,3.0,6.0,66,-99.99,,,-99.99,,2013-03-16 05:12:00,
2013-03-15 22:21:00,48.0,37.0,-100.00,NNW,340,4.0,9.0,66,-99.99,,,-99.99,,2013-03-16 05:21:00,
2013-03-15 22:32:00,48.0,37.0,-100.00,WNW,295,3.0,7.0,66,-99.99,,,-99.99,,2013-03-16 05:32:00,
2013-03-15 22:42:00,48.0,37.0,-100.00,WNW,295,3.0,7.0,66,-99.99,,,-99.99,,2013-03-16 05:42:00,
2013-03-15 22:52:00,47.0,37.0,-100.00,NW,310,1.0,7.0,66,-99.99,,,-99.99,,2013-03-16 05:52:00,
2013-03-15 23:02:00,47.0,37.0,-100.00,NW,310,1.0,7.0,66,-99.99,,,-99.99,,2013-03-16 06:02:00,
2013-03-15 23:12:00,47.0,36.0,-100.00,WNW,290,2.0,6.0,66,-99.99,,,-99.99,,2013-03-16 06:12:00,
2013-03-15 23:21:00,47.0,36.0,-100.00,NW,310,3.0,5.0,67,-99.99,,,-99.99,,2013-03-16 06:21:00,
2013-03-15 23:32:00,46.0,36.0,-100.00,North,355,1.0,6.0,68,-99.99,,,-99.99,,2013-03-16 06:32:00,
2013-03-15 23:42:00,46.0,36.0,-100.00,North,355,1.0,6.0,68,-99.99,,,-99.99,,2013-03-16 06:42:00,
2013-03-15 23:52:00,46.0,36.0,-100.00,WNW,295,2.0,4.0,68,-99.99,,,-99.99,,2013-03-16 06:52:00,